sensor_id;sensor_type;location;lat;lon;timestamp;pressure;altitude;pressure_sealevel;temperature;humidity
59417;BME280;45222;52.458;20.914;2023-01-10T00:01:18;99765.15;;;5.82;90.46
59417;BME280;45222;52.458;20.914;2023-01-10T00:05:08;99765.72;;;5.81;90.53
59417;BME280;45222;52.458;20.914;2023-01-10T00:08:55;99767.96;;;5.83;90.34
59417;BME280;45222;52.458;20.914;2023-01-10T00:12:43;99772.19;;;5.83;90.34
59417;BME280;45222;52.458;20.914;2023-01-10T00:16:48;99771.83;;;5.83;90.49
59417;BME280;45222;52.458;20.914;2023-01-10T00:20:36;99775.50;;;5.84;90.52
59417;BME280;45222;52.458;20.914;2023-01-10T00:24:24;99778.77;;;5.86;90.58
59417;BME280;45222;52.458;20.914;2023-01-10T00:28:12;99778.43;;;5.90;90.35
59417;BME280;45222;52.458;20.914;2023-01-10T00:32:05;99787.71;;;5.92;90.31
59417;BME280;45222;52.458;20.914;2023-01-10T00:35:53;99789.84;;;5.92;90.39
59417;BME280;45222;52.458;20.914;2023-01-10T00:39:41;99796.16;;;5.93;90.38
59417;BME280;45222;52.458;20.914;2023-01-10T00:43:29;99804.79;;;5.93;90.32
59417;BME280;45222;52.458;20.914;2023-01-10T00:47:34;99810.39;;;5.95;90.24
59417;BME280;45222;52.458;20.914;2023-01-10T00:51:22;99820.79;;;5.95;90.24
59417;BME280;45222;52.458;20.914;2023-01-10T00:55:11;99828.15;;;5.96;90.06
59417;BME280;45222;52.458;20.914;2023-01-10T00:58:58;99838.38;;;5.97;90.09
59417;BME280;45222;52.458;20.914;2023-01-10T01:02:46;99842.70;;;5.94;90.12
59417;BME280;45222;52.458;20.914;2023-01-10T01:06:36;99844.52;;;5.93;90.05
59417;BME280;45222;52.458;20.914;2023-01-10T01:10:24;99844.05;;;5.91;90.14
59417;BME280;45222;52.458;20.914;2023-01-10T01:14:15;99848.09;;;5.91;90.10
59417;BME280;45222;52.458;20.914;2023-01-10T01:18:04;99853.14;;;5.88;89.88
59417;BME280;45222;52.458;20.914;2023-01-10T01:21:52;99861.25;;;5.89;90.21
59417;BME280;45222;52.458;20.914;2023-01-10T01:25:40;99856.74;;;5.92;90.08
59417;BME280;45222;52.458;20.914;2023-01-10T01:29:28;99861.14;;;5.92;89.99
59417;BME280;45222;52.458;20.914;2023-01-10T01:33:16;99863.84;;;5.96;90.14
59417;BME280;45222;52.458;20.914;2023-01-10T01:37:04;99866.23;;;5.98;90.10
59417;BME280;45222;52.458;20.914;2023-01-10T01:40:52;99864.65;;;5.97;90.06
59417;BME280;45222;52.458;20.914;2023-01-10T01:44:42;99870.95;;;5.99;89.92
59417;BME280;45222;52.458;20.914;2023-01-10T01:48:34;99873.11;;;5.98;89.80
59417;BME280;45222;52.458;20.914;2023-01-10T01:52:26;99875.21;;;5.98;89.84
59417;BME280;45222;52.458;20.914;2023-01-10T01:56:18;99877.67;;;5.98;90.07
59417;BME280;45222;52.458;20.914;2023-01-10T02:00:10;99890.48;;;6.00;89.80
59417;BME280;45222;52.458;20.914;2023-01-10T02:04:02;99902.01;;;5.99;89.87
59417;BME280;45222;52.458;20.914;2023-01-10T02:07:55;99899.59;;;5.98;89.90
59417;BME280;45222;52.458;20.914;2023-01-10T02:11:43;99898.64;;;5.99;89.97
59417;BME280;45222;52.458;20.914;2023-01-10T02:15:31;99900.60;;;5.98;90.08
59417;BME280;45222;52.458;20.914;2023-01-10T02:19:29;99903.31;;;6.02;90.03
59417;BME280;45222;52.458;20.914;2023-01-10T02:28:03;99917.61;;;6.12;89.91
59417;BME280;45222;52.458;20.914;2023-01-10T02:32:11;99919.96;;;6.20;89.77
59417;BME280;45222;52.458;20.914;2023-01-10T02:36:17;99930.89;;;6.26;89.57
59417;BME280;45222;52.458;20.914;2023-01-10T02:40:17;99934.00;;;6.27;89.25
59417;BME280;45222;52.458;20.914;2023-01-10T02:44:09;99937.30;;;6.29;89.13
59417;BME280;45222;52.458;20.914;2023-01-10T02:47:58;99938.51;;;6.30;89.06
59417;BME280;45222;52.458;20.914;2023-01-10T02:51:46;99941.15;;;6.35;89.14
59417;BME280;45222;52.458;20.914;2023-01-10T02:55:43;99947.46;;;6.40;89.00
59417;BME280;45222;52.458;20.914;2023-01-10T03:04:03;99942.11;;;6.47;88.71
59417;BME280;45222;52.458;20.914;2023-01-10T03:08:03;99950.86;;;6.49;88.65
59417;BME280;45222;52.458;20.914;2023-01-10T03:12:01;99954.40;;;6.49;88.32
59417;BME280;45222;52.458;20.914;2023-01-10T03:15:53;99952.39;;;6.45;88.29
59417;BME280;45222;52.458;20.914;2023-01-10T03:19:45;99954.46;;;6.42;88.23
59417;BME280;45222;52.458;20.914;2023-01-10T03:23:35;99953.96;;;6.37;88.11
59417;BME280;45222;52.458;20.914;2023-01-10T03:27:26;99955.40;;;6.26;88.12
59417;BME280;45222;52.458;20.914;2023-01-10T03:31:19;99968.08;;;6.17;88.45
59417;BME280;45222;52.458;20.914;2023-01-10T03:35:11;99971.64;;;6.07;88.43
59417;BME280;45222;52.458;20.914;2023-01-10T03:39:03;99968.89;;;5.94;88.84
59417;BME280;45222;52.458;20.914;2023-01-10T03:42:59;99972.58;;;5.85;89.15
59417;BME280;45222;52.458;20.914;2023-01-10T03:47:10;99973.41;;;5.71;89.41
59417;BME280;45222;52.458;20.914;2023-01-10T03:51:01;99970.51;;;5.63;89.86
59417;BME280;45222;52.458;20.914;2023-01-10T03:54:51;99972.62;;;5.58;89.96
59417;BME280;45222;52.458;20.914;2023-01-10T03:58:39;99979.42;;;5.55;90.38
59417;BME280;45222;52.458;20.914;2023-01-10T04:02:29;99983.52;;;5.54;90.43
59417;BME280;45222;52.458;20.914;2023-01-10T04:06:17;99982.77;;;5.55;90.54
59417;BME280;45222;52.458;20.914;2023-01-10T04:10:07;99988.06;;;5.60;90.85
59417;BME280;45222;52.458;20.914;2023-01-10T04:13:55;99989.25;;;5.67;90.76
59417;BME280;45222;52.458;20.914;2023-01-10T04:17:43;99994.58;;;5.76;90.67
59417;BME280;45222;52.458;20.914;2023-01-10T04:21:33;100002.78;;;5.79;90.25
59417;BME280;45222;52.458;20.914;2023-01-10T04:25:21;100009.27;;;5.81;90.34
59417;BME280;45222;52.458;20.914;2023-01-10T04:29:09;100017.94;;;5.85;90.52
59417;BME280;45222;52.458;20.914;2023-01-10T04:32:57;100029.73;;;5.90;90.36
59417;BME280;45222;52.458;20.914;2023-01-10T04:36:46;100033.10;;;5.90;90.23
59417;BME280;45222;52.458;20.914;2023-01-10T04:40:34;100038.89;;;5.96;90.32
59417;BME280;45222;52.458;20.914;2023-01-10T04:44:22;100047.34;;;6.03;90.11
59417;BME280;45222;52.458;20.914;2023-01-10T04:48:10;100060.61;;;6.07;90.07
59417;BME280;45222;52.458;20.914;2023-01-10T04:51:58;100065.34;;;6.09;89.71
59417;BME280;45222;52.458;20.914;2023-01-10T04:55:46;100072.00;;;6.05;89.93
59417;BME280;45222;52.458;20.914;2023-01-10T04:59:35;100080.41;;;6.06;89.76
59417;BME280;45222;52.458;20.914;2023-01-10T05:03:22;100090.25;;;6.02;89.49
59417;BME280;45222;52.458;20.914;2023-01-10T05:07:11;100102.18;;;5.93;89.52
59417;BME280;45222;52.458;20.914;2023-01-10T05:10:58;100104.36;;;5.86;89.63
59417;BME280;45222;52.458;20.914;2023-01-10T05:14:46;100104.66;;;5.77;89.87
59417;BME280;45222;52.458;20.914;2023-01-10T05:18:34;100114.30;;;5.73;90.10
59417;BME280;45222;52.458;20.914;2023-01-10T05:22:22;100124.75;;;5.77;90.28
59417;BME280;45222;52.458;20.914;2023-01-10T05:26:13;100128.49;;;5.77;90.28
59417;BME280;45222;52.458;20.914;2023-01-10T05:30:01;100135.60;;;5.80;90.67
59417;BME280;45222;52.458;20.914;2023-01-10T05:33:50;100146.66;;;5.88;90.34
59417;BME280;45222;52.458;20.914;2023-01-10T05:37:38;100152.25;;;5.95;90.42
59417;BME280;45222;52.458;20.914;2023-01-10T05:41:26;100161.98;;;6.06;90.12
59417;BME280;45222;52.458;20.914;2023-01-10T05:45:14;100168.11;;;6.08;89.80
59417;BME280;45222;52.458;20.914;2023-01-10T05:49:02;100179.04;;;6.08;89.87
59417;BME280;45222;52.458;20.914;2023-01-10T05:52:50;100182.09;;;6.07;89.58
59417;BME280;45222;52.458;20.914;2023-01-10T05:56:38;100189.45;;;6.08;89.48
59417;BME280;45222;52.458;20.914;2023-01-10T06:00:26;100196.73;;;6.18;89.74
59417;BME280;45222;52.458;20.914;2023-01-10T06:04:14;100207.63;;;6.19;89.13
59417;BME280;45222;52.458;20.914;2023-01-10T06:08:02;100214.22;;;6.12;88.98
59417;BME280;45222;52.458;20.914;2023-01-10T06:11:50;100219.32;;;6.07;89.25
59417;BME280;45222;52.458;20.914;2023-01-10T06:15:38;100230.02;;;6.03;89.30
59417;BME280;45222;52.458;20.914;2023-01-10T06:19:26;100235.30;;;5.98;89.17
59417;BME280;45222;52.458;20.914;2023-01-10T06:23:14;100244.38;;;5.90;89.32
59417;BME280;45222;52.458;20.914;2023-01-10T06:27:02;100250.80;;;5.82;89.30
59417;BME280;45222;52.458;20.914;2023-01-10T06:30:50;100258.89;;;5.76;89.52
59417;BME280;45222;52.458;20.914;2023-01-10T06:34:38;100266.33;;;5.70;89.68
59417;BME280;45222;52.458;20.914;2023-01-10T06:38:26;100280.48;;;5.62;89.95
59417;BME280;45222;52.458;20.914;2023-01-10T06:42:14;100282.98;;;5.61;90.30
59417;BME280;45222;52.458;20.914;2023-01-10T06:46:01;100282.19;;;5.64;90.34
59417;BME280;45222;52.458;20.914;2023-01-10T06:49:49;100289.46;;;5.69;90.26
59417;BME280;45222;52.458;20.914;2023-01-10T06:53:38;100296.25;;;5.72;90.12
59417;BME280;45222;52.458;20.914;2023-01-10T06:57:26;100307.19;;;5.78;90.11
59417;BME280;45222;52.458;20.914;2023-01-10T07:01:16;100304.55;;;5.72;89.86
59417;BME280;45222;52.458;20.914;2023-01-10T07:05:06;100305.46;;;5.59;89.88
59417;BME280;45222;52.458;20.914;2023-01-10T07:08:55;100313.53;;;5.48;90.03
59417;BME280;45222;52.458;20.914;2023-01-10T07:12:42;100317.75;;;5.42;90.29
59417;BME280;45222;52.458;20.914;2023-01-10T07:16:30;100317.15;;;5.38;90.60
59417;BME280;45222;52.458;20.914;2023-01-10T07:20:19;100321.99;;;5.35;90.77
59417;BME280;45222;52.458;20.914;2023-01-10T07:24:08;100326.81;;;5.33;90.78
59417;BME280;45222;52.458;20.914;2023-01-10T07:27:56;100329.48;;;5.32;90.98
59417;BME280;45222;52.458;20.914;2023-01-10T07:31:44;100332.34;;;5.31;90.92
59417;BME280;45222;52.458;20.914;2023-01-10T07:35:32;100335.91;;;5.29;91.11
59417;BME280;45222;52.458;20.914;2023-01-10T07:39:19;100337.16;;;5.29;91.42
59417;BME280;45222;52.458;20.914;2023-01-10T07:43:08;100336.30;;;5.28;91.04
59417;BME280;45222;52.458;20.914;2023-01-10T07:46:56;100343.25;;;5.26;91.23
59417;BME280;45222;52.458;20.914;2023-01-10T07:50:44;100348.89;;;5.25;91.38
59417;BME280;45222;52.458;20.914;2023-01-10T07:54:31;100356.17;;;5.23;91.10
59417;BME280;45222;52.458;20.914;2023-01-10T07:58:19;100361.69;;;5.22;91.21
59417;BME280;45222;52.458;20.914;2023-01-10T08:02:09;100362.48;;;5.17;91.13
59417;BME280;45222;52.458;20.914;2023-01-10T08:06:01;100361.70;;;5.15;91.22
59417;BME280;45222;52.458;20.914;2023-01-10T08:09:50;100367.95;;;5.12;91.22
59417;BME280;45222;52.458;20.914;2023-01-10T08:13:38;100367.33;;;5.08;91.23
59417;BME280;45222;52.458;20.914;2023-01-10T08:17:26;100372.84;;;5.06;91.39
59417;BME280;45222;52.458;20.914;2023-01-10T08:21:14;100380.21;;;5.07;90.97
59417;BME280;45222;52.458;20.914;2023-01-10T08:25:02;100382.77;;;5.04;90.94
59417;BME280;45222;52.458;20.914;2023-01-10T08:28:50;100387.83;;;4.99;91.07
59417;BME280;45222;52.458;20.914;2023-01-10T08:32:38;100390.61;;;5.00;91.21
59417;BME280;45222;52.458;20.914;2023-01-10T08:36:26;100398.00;;;5.07;91.16
59417;BME280;45222;52.458;20.914;2023-01-10T08:40:15;100408.48;;;5.12;91.01
59417;BME280;45222;52.458;20.914;2023-01-10T08:44:04;100410.81;;;5.09;90.75
59417;BME280;45222;52.458;20.914;2023-01-10T08:47:52;100419.17;;;5.07;90.58
59417;BME280;45222;52.458;20.914;2023-01-10T08:51:40;100424.17;;;5.05;90.55
59417;BME280;45222;52.458;20.914;2023-01-10T08:55:28;100426.53;;;5.02;90.62
59417;BME280;45222;52.458;20.914;2023-01-10T08:59:17;100430.81;;;5.00;90.72
59417;BME280;45222;52.458;20.914;2023-01-10T09:03:07;100432.40;;;5.00;90.54
59417;BME280;45222;52.458;20.914;2023-01-10T09:06:56;100441.56;;;5.00;90.47
59417;BME280;45222;52.458;20.914;2023-01-10T09:10:44;100448.55;;;5.02;90.30
59417;BME280;45222;52.458;20.914;2023-01-10T09:14:32;100451.16;;;5.04;90.22
59417;BME280;45222;52.458;20.914;2023-01-10T09:18:20;100450.77;;;5.06;90.21
59417;BME280;45222;52.458;20.914;2023-01-10T09:22:08;100454.13;;;5.12;90.43
59417;BME280;45222;52.458;20.914;2023-01-10T09:25:56;100454.19;;;5.17;90.21
59417;BME280;45222;52.458;20.914;2023-01-10T09:29:44;100453.30;;;5.18;89.78
59417;BME280;45222;52.458;20.914;2023-01-10T09:33:32;100456.70;;;5.15;89.80
59417;BME280;45222;52.458;20.914;2023-01-10T09:37:19;100455.98;;;5.16;89.87
59417;BME280;45222;52.458;20.914;2023-01-10T09:41:19;100458.25;;;5.17;89.54
59417;BME280;45222;52.458;20.914;2023-01-10T09:45:16;100456.48;;;5.17;89.69
59417;BME280;45222;52.458;20.914;2023-01-10T09:49:12;100457.54;;;5.17;89.62
59417;BME280;45222;52.458;20.914;2023-01-10T09:53:07;100457.91;;;5.16;89.64
59417;BME280;45222;52.458;20.914;2023-01-10T09:56:59;100456.33;;;5.16;89.58
59417;BME280;45222;52.458;20.914;2023-01-10T10:00:51;100462.12;;;5.17;89.63
59417;BME280;45222;52.458;20.914;2023-01-10T10:04:41;100462.01;;;5.21;89.82
59417;BME280;45222;52.458;20.914;2023-01-10T10:08:32;100468.05;;;5.27;89.50
59417;BME280;45222;52.458;20.914;2023-01-10T10:12:28;100470.13;;;5.29;89.29
59417;BME280;45222;52.458;20.914;2023-01-10T10:16:28;100471.13;;;5.31;89.29
59417;BME280;45222;52.458;20.914;2023-01-10T10:20:32;100471.89;;;5.36;89.47
59417;BME280;45222;52.458;20.914;2023-01-10T10:24:36;100475.48;;;5.41;89.33
59417;BME280;45222;52.458;20.914;2023-01-10T10:28:49;100474.73;;;5.42;89.15
59417;BME280;45222;52.458;20.914;2023-01-10T10:32:55;100477.92;;;5.41;89.14
59417;BME280;45222;52.458;20.914;2023-01-10T10:36:49;100482.88;;;5.41;89.46
59417;BME280;45222;52.458;20.914;2023-01-10T10:40:40;100484.56;;;5.43;89.19
59417;BME280;45222;52.458;20.914;2023-01-10T10:44:35;100482.19;;;5.47;89.14
59417;BME280;45222;52.458;20.914;2023-01-10T10:48:28;100480.88;;;5.50;88.97
59417;BME280;45222;52.458;20.914;2023-01-10T10:52:23;100484.40;;;5.50;89.13
59417;BME280;45222;52.458;20.914;2023-01-10T10:56:13;100483.38;;;5.55;89.22
59417;BME280;45222;52.458;20.914;2023-01-10T11:00:04;100482.34;;;5.61;88.91
59417;BME280;45222;52.458;20.914;2023-01-10T11:03:57;100488.33;;;5.62;88.21
59417;BME280;45222;52.458;20.914;2023-01-10T11:07:46;100498.95;;;5.60;87.78
59417;BME280;45222;52.458;20.914;2023-01-10T11:11:37;100504.42;;;5.60;87.81
59417;BME280;45222;52.458;20.914;2023-01-10T11:15:44;100506.80;;;5.63;88.16
59417;BME280;45222;52.458;20.914;2023-01-10T11:19:33;100510.52;;;5.71;87.57
59417;BME280;45222;52.458;20.914;2023-01-10T11:23:35;100512.27;;;5.70;87.38
59417;BME280;45222;52.458;20.914;2023-01-10T11:27:26;100514.91;;;5.71;87.65
59417;BME280;45222;52.458;20.914;2023-01-10T11:31:15;100522.23;;;5.74;87.22
59417;BME280;45222;52.458;20.914;2023-01-10T11:35:18;100526.95;;;5.70;86.99
59417;BME280;45222;52.458;20.914;2023-01-10T11:39:12;100534.09;;;5.66;87.08
59417;BME280;45222;52.458;20.914;2023-01-10T11:43:23;100537.84;;;5.65;87.25
59417;BME280;45222;52.458;20.914;2023-01-10T11:47:13;100545.17;;;5.67;87.32
59417;BME280;45222;52.458;20.914;2023-01-10T11:51:12;100550.80;;;5.69;87.25
59417;BME280;45222;52.458;20.914;2023-01-10T11:55:05;100558.11;;;5.65;86.74
59417;BME280;45222;52.458;20.914;2023-01-10T11:58:54;100565.48;;;5.59;86.46
59417;BME280;45222;52.458;20.914;2023-01-10T12:02:44;100574.05;;;5.55;86.55
59417;BME280;45222;52.458;20.914;2023-01-10T12:06:31;100567.34;;;5.55;86.87
59417;BME280;45222;52.458;20.914;2023-01-10T12:10:23;100572.72;;;5.52;86.77
59417;BME280;45222;52.458;20.914;2023-01-10T12:14:19;100577.85;;;5.52;86.66
59417;BME280;45222;52.458;20.914;2023-01-10T12:18:09;100586.27;;;5.54;86.94
59417;BME280;45222;52.458;20.914;2023-01-10T12:22:01;100583.34;;;5.58;86.89
59417;BME280;45222;52.458;20.914;2023-01-10T12:25:52;100589.77;;;5.61;86.82
59417;BME280;45222;52.458;20.914;2023-01-10T12:29:44;100601.38;;;5.64;86.74
59417;BME280;45222;52.458;20.914;2023-01-10T12:33:34;100607.15;;;5.65;86.90
59417;BME280;45222;52.458;20.914;2023-01-10T12:37:28;100617.13;;;5.69;87.14
59417;BME280;45222;52.458;20.914;2023-01-10T12:41:23;100626.49;;;5.75;87.08
59417;BME280;45222;52.458;20.914;2023-01-10T12:45:32;100633.56;;;5.75;86.84
59417;BME280;45222;52.458;20.914;2023-01-10T12:49:25;100641.42;;;5.79;87.15
59417;BME280;45222;52.458;20.914;2023-01-10T12:53:22;100642.16;;;5.84;86.59
59417;BME280;45222;52.458;20.914;2023-01-10T12:57:20;100638.27;;;5.85;86.64
59417;BME280;45222;52.458;20.914;2023-01-10T13:01:12;100642.38;;;5.83;86.50
59417;BME280;45222;52.458;20.914;2023-01-10T13:05:03;100647.11;;;5.77;86.29
59417;BME280;45222;52.458;20.914;2023-01-10T13:08:52;100652.67;;;5.73;86.50
59417;BME280;45222;52.458;20.914;2023-01-10T13:12:41;100652.88;;;5.72;86.40
59417;BME280;45222;52.458;20.914;2023-01-10T13:16:39;100666.22;;;5.67;86.30
59417;BME280;45222;52.458;20.914;2023-01-10T13:20:39;100680.41;;;5.64;86.29
59417;BME280;45222;52.458;20.914;2023-01-10T13:24:28;100683.73;;;5.65;86.15
59417;BME280;45222;52.458;20.914;2023-01-10T13:28:19;100687.42;;;5.66;85.80
59417;BME280;45222;52.458;20.914;2023-01-10T13:32:21;100693.55;;;5.69;85.72
59417;BME280;45222;52.458;20.914;2023-01-10T13:36:14;100690.27;;;5.72;85.85
59417;BME280;45222;52.458;20.914;2023-01-10T13:40:05;100695.23;;;5.78;85.48
59417;BME280;45222;52.458;20.914;2023-01-10T13:44:16;100697.11;;;5.82;85.55
59417;BME280;45222;52.458;20.914;2023-01-10T13:48:25;100703.10;;;5.82;85.12
59417;BME280;45222;52.458;20.914;2023-01-10T13:52:39;100714.13;;;5.79;85.20
59417;BME280;45222;52.458;20.914;2023-01-10T13:56:36;100722.64;;;5.77;85.17
59417;BME280;45222;52.458;20.914;2023-01-10T14:00:42;100728.79;;;5.71;84.98
59417;BME280;45222;52.458;20.914;2023-01-10T14:04:51;100730.95;;;5.61;85.12
59417;BME280;45222;52.458;20.914;2023-01-10T14:08:40;100734.98;;;5.54;85.17
59417;BME280;45222;52.458;20.914;2023-01-10T14:12:38;100733.77;;;5.52;85.28
59417;BME280;45222;52.458;20.914;2023-01-10T14:16:33;100734.50;;;5.52;85.26
59417;BME280;45222;52.458;20.914;2023-01-10T14:20:22;100733.26;;;5.52;85.12
59417;BME280;45222;52.458;20.914;2023-01-10T14:24:21;100744.77;;;5.49;85.01
59417;BME280;45222;52.458;20.914;2023-01-10T14:28:20;100752.06;;;5.47;85.33
59417;BME280;45222;52.458;20.914;2023-01-10T14:32:19;100756.56;;;5.51;85.43
59417;BME280;45222;52.458;20.914;2023-01-10T14:36:16;100761.35;;;5.58;85.18
59417;BME280;45222;52.458;20.914;2023-01-10T14:40:16;100763.73;;;5.70;85.12
59417;BME280;45222;52.458;20.914;2023-01-10T14:44:11;100770.75;;;5.80;84.55
59417;BME280;45222;52.458;20.914;2023-01-10T14:48:00;100772.17;;;5.88;84.34
59417;BME280;45222;52.458;20.914;2023-01-10T14:52:16;100772.63;;;5.82;83.69
59417;BME280;45222;52.458;20.914;2023-01-10T14:56:18;100771.85;;;5.62;83.45
59417;BME280;45222;52.458;20.914;2023-01-10T15:00:11;100775.10;;;5.42;83.76
59417;BME280;45222;52.458;20.914;2023-01-10T15:04:00;100778.42;;;5.25;84.01
59417;BME280;45222;52.458;20.914;2023-01-10T15:07:48;100783.77;;;5.22;84.51
59417;BME280;45222;52.458;20.914;2023-01-10T15:11:36;100777.96;;;5.22;84.51
59417;BME280;45222;52.458;20.914;2023-01-10T15:15:28;100773.54;;;5.23;84.44
59417;BME280;45222;52.458;20.914;2023-01-10T15:19:19;100775.20;;;5.19;84.24
59417;BME280;45222;52.458;20.914;2023-01-10T15:23:14;100779.34;;;5.15;84.49
59417;BME280;45222;52.458;20.914;2023-01-10T15:27:03;100781.31;;;5.13;84.45
59417;BME280;45222;52.458;20.914;2023-01-10T15:30:52;100789.34;;;5.08;84.43
59417;BME280;45222;52.458;20.914;2023-01-10T15:34:46;100801.23;;;5.04;84.75
59417;BME280;45222;52.458;20.914;2023-01-10T15:38:36;100801.39;;;5.04;84.54
59417;BME280;45222;52.458;20.914;2023-01-10T15:42:24;100800.96;;;4.99;84.61
59417;BME280;45222;52.458;20.914;2023-01-10T15:46:20;100802.34;;;4.91;84.56
59417;BME280;45222;52.458;20.914;2023-01-10T15:50:23;100817.88;;;4.80;84.86
59417;BME280;45222;52.458;20.914;2023-01-10T15:54:29;100824.54;;;4.72;85.13
59417;BME280;45222;52.458;20.914;2023-01-10T15:58:21;100829.01;;;4.67;85.22
59417;BME280;45222;52.458;20.914;2023-01-10T16:02:22;100829.13;;;4.60;85.22
59417;BME280;45222;52.458;20.914;2023-01-10T16:06:21;100834.84;;;4.55;85.45
59417;BME280;45222;52.458;20.914;2023-01-10T16:10:18;100841.40;;;4.53;85.67
59417;BME280;45222;52.458;20.914;2023-01-10T16:14:07;100849.01;;;4.51;85.54
59417;BME280;45222;52.458;20.914;2023-01-10T16:17:56;100856.08;;;4.49;85.66
59417;BME280;45222;52.458;20.914;2023-01-10T16:21:47;100865.05;;;4.50;85.76
59417;BME280;45222;52.458;20.914;2023-01-10T16:25:38;100870.89;;;4.48;85.75
59417;BME280;45222;52.458;20.914;2023-01-10T16:29:30;100873.65;;;4.51;85.59
59417;BME280;45222;52.458;20.914;2023-01-10T16:33:19;100873.69;;;4.49;85.68
59417;BME280;45222;52.458;20.914;2023-01-10T16:37:09;100874.49;;;4.42;85.75
59417;BME280;45222;52.458;20.914;2023-01-10T16:40:59;100878.65;;;4.35;85.77
59417;BME280;45222;52.458;20.914;2023-01-10T16:45:09;100878.41;;;4.28;85.97
